地図

経路データ

SID SEASON NUMBER BASIN SUBBASIN NAME ISO_TIME NATURE LAT LON WMO_WIND WMO_PRES WMO_AGENCY TRACK_TYPE DIST2LAND LANDFALL IFLAG USA_AGENCY USA_ATCF_ID USA_LAT USA_LON USA_RECORD USA_STATUS USA_WIND USA_PRES USA_SSHS USA_R34_NE USA_R34_SE USA_R34_SW USA_R34_NW USA_R50_NE USA_R50_SE USA_R50_SW USA_R50_NW USA_R64_NE USA_R64_SE USA_R64_SW USA_R64_NW USA_POCI USA_ROCI USA_RMW USA_EYE TOKYO_LAT TOKYO_LON TOKYO_GRADE TOKYO_WIND TOKYO_PRES TOKYO_R50_DIR TOKYO_R50_LONG TOKYO_R50_SHORT TOKYO_R30_DIR TOKYO_R30_LONG TOKYO_R30_SHORT TOKYO_LAND CMA_LAT CMA_LON CMA_CAT CMA_WIND CMA_PRES HKO_LAT HKO_LON HKO_CAT HKO_WIND HKO_PRES NEWDELHI_LAT NEWDELHI_LON NEWDELHI_GRADE NEWDELHI_WIND NEWDELHI_PRES NEWDELHI_CI NEWDELHI_DP NEWDELHI_POCI REUNION_LAT REUNION_LON REUNION_TYPE REUNION_WIND REUNION_PRES REUNION_TNUM REUNION_CI REUNION_RMW REUNION_R34_NE REUNION_R34_SE REUNION_R34_SW REUNION_R34_NW REUNION_R50_NE REUNION_R50_SE REUNION_R50_SW REUNION_R50_NW REUNION_R64_NE REUNION_R64_SE REUNION_R64_SW REUNION_R64_NW BOM_LAT BOM_LON BOM_TYPE BOM_WIND BOM_PRES BOM_TNUM BOM_CI BOM_RMW BOM_R34_NE BOM_R34_SE BOM_R34_SW BOM_R34_NW BOM_R50_NE BOM_R50_SE BOM_R50_SW BOM_R50_NW BOM_R64_NE BOM_R64_SE BOM_R64_SW BOM_R64_NW BOM_ROCI BOM_POCI BOM_EYE BOM_POS_METHOD BOM_PRES_METHOD NADI_LAT NADI_LON NADI_CAT NADI_WIND NADI_PRES WELLINGTON_LAT WELLINGTON_LON WELLINGTON_WIND WELLINGTON_PRES DS824_LAT DS824_LON DS824_STAGE DS824_WIND DS824_PRES TD9636_LAT TD9636_LON TD9636_STAGE TD9636_WIND TD9636_PRES TD9635_LAT TD9635_LON TD9635_WIND TD9635_PRES TD9635_ROCI NEUMANN_LAT NEUMANN_LON NEUMANN_CLASS NEUMANN_WIND NEUMANN_PRES MLC_LAT MLC_LON MLC_CLASS MLC_WIND MLC_PRES USA_GUST BOM_GUST BOM_GUST_PER REUNION_GUST REUNION_GUST_PER USA_SEAHGT USA_SEARAD_NE USA_SEARAD_SE USA_SEARAD_SW USA_SEARAD_NW STORM_SPEED STORM_DIR
1943027S14154 1943 11 SP EA NOT_NAMED 1943-01-26 23:00:00 NR -14.0000 153.850 1004 bom main 515 508 ______O___O___ -1 -13.8000 154.100 1004 -14.2000 153.600 7 4 229
1943027S14154 1943 11 SP EA NOT_NAMED 1943-01-27 00:00:00 TS -14.0368 153.802 main 508 502 ______P__OP___ -1 -13.8903 153.992 -13.9000 154.000 TC 20 1004 -14.2517 153.512 7 6 234
1943027S14154 1943 11 SP EA NOT_NAMED 1943-01-27 03:00:00 TS -14.2298 153.525 main 505 505 ______P__PP___ -1 -14.1573 153.670 -14.0744 153.724 TC -14.4060 153.247 7 7 235
1943027S14154 1943 11 SP EA NOT_NAMED 1943-01-27 06:00:00 TS -14.4192 153.242 main 504 503 ______P__PP___ -1 -14.4104 153.353 -14.2462 153.448 TC -14.5578 152.976 7 6 236
1943027S14154 1943 11 SP EA NOT_NAMED 1943-01-27 09:00:00 TS -14.5861 152.972 main 512 507 ______P__PP___ -1 -14.6397 153.047 -14.4133 153.175 TC -14.7051 152.695 7 6 238
1943027S14154 1943 11 SP EA NOT_NAMED 1943-01-27 11:00:00 TS -14.6985 152.782 main 512 507 ______P__PO___ -1 -14.7744 152.851 -14.5210 152.995 TC -14.8000 152.500 7 6 239
1943027S14154 1943 11 SP EA NOT_NAMED 1943-01-27 12:00:00 TS -14.7516 152.687 main 517 509 ______P__PP___ -1 -14.8351 152.756 -14.5735 152.906 TC -14.8463 152.400 7 6 241
1943027S14154 1943 11 SP EA NOT_NAMED 1943-01-27 15:00:00 TS -14.8970 152.408 main 515 511 ______P__PP___ -1 -14.9866 152.485 -14.7244 152.643 TC -14.9801 152.095 7 6 243
1943027S14154 1943 11 SP EA NOT_NAMED 1943-01-27 18:00:00 TS -15.0182 152.143 main 515 515 ______P__PP___ -1 -15.0842 152.239 -14.8639 152.386 TC -15.1064 151.803 7 5 246
1943027S14154 1943 11 SP EA NOT_NAMED 1943-01-27 21:00:00 TS -15.1109 151.902 main 518 515 ______P__PP___ -1 -15.1179 152.024 -14.9899 152.138 TC -15.2251 151.543 7 5 250
1943027S14154 1943 11 SP EA NOT_NAMED 1943-01-27 23:00:00 TS -15.1551 151.759 1000 bom main 526 523 ______O__PO___ -1 -15.1000 151.900 1000 -15.0652 151.978 TC -15.3000 151.400 7 4 253
1943027S14154 1943 11 SP EA NOT_NAMED 1943-01-28 00:00:00 TS -15.1712 151.697 main 523 517 ______P__OP___ -1 -15.0782 151.844 -15.1000 151.900 TC 30 1000 -15.3354 151.347 7 3 258
1943027S14154 1943 11 SP EA NOT_NAMED 1943-01-28 03:00:00 TS -15.2022 151.533 main 517 515 ______P__PP___ -1 -14.9765 151.699 -15.1946 151.674 TC -15.4355 151.227 7 3 260
1943027S14154 1943 11 SP EA NOT_NAMED 1943-01-28 06:00:00 TS -15.2241 151.396 main 515 513 ______P__PP___ -1 -14.8570 151.579 -15.2836 151.465 TC -15.5317 151.144 7 3 257
1943027S14154 1943 11 SP EA NOT_NAMED 1943-01-28 09:00:00 TS -15.2587 151.272 main 524 522 ______P__PP___ -1 -14.7664 151.475 -15.3796 151.276 TC -15.6301 151.065 7 3 249
1943027S14154 1943 11 SP EA NOT_NAMED 1943-01-28 11:00:00 TS -15.2996 151.191 main 522 522 ______P__PO___ -1 -14.7451 151.410 -15.4536 151.163 TC -15.7000 151.000 7 3 244
1943027S14154 1943 11 SP EA NOT_NAMED 1943-01-28 12:00:00 TS -15.3192 151.144 main 520 520 ______P__PP___ -1 -14.7514 151.377 -15.4949 151.112 TC -15.7113 150.943 7 3 238
1943027S14154 1943 11 SP EA NOT_NAMED 1943-01-28 15:00:00 TS -15.4135 151.002 main 530 530 ______P__PP___ -1 -14.8589 151.274 -15.6422 150.978 TC -15.7395 150.752 7 4 225
1943027S14154 1943 11 SP EA NOT_NAMED 1943-01-28 18:00:00 TS -15.5931 150.864 main 550 518 ______P__PP___ -1 -15.1356 151.157 -15.8337 150.878 TC -15.8101 150.556 7 6 208
1943027S14154 1943 11 SP EA NOT_NAMED 1943-01-28 21:00:00 TS -15.8997 150.739 main 518 495 ______P__PP___ -1 -15.6283 151.014 -16.0822 150.818 TC -15.9886 150.385 7 8 198
1943027S14154 1943 11 SP EA NOT_NAMED 1943-01-28 23:00:00 TS -16.1952 150.667 990 bom main 495 480 ______O__PO___ -1 -16.1000 150.900 990 4 -16.2856 150.801 TC -16.2000 150.300 7 10 192
1943027S14154 1943 11 SP EA NOT_NAMED 1943-01-29 00:00:00 TS -16.3827 150.630 main 470 432 ______P__OP___ -1 -16.3907 150.828 -16.4000 150.800 TC 45 990 -16.3573 150.261 7 13 187
1943027S14154 1943 11 SP EA NOT_NAMED 1943-01-29 02:00:00 TS -16.8167 150.584 bom main 432 414 ______O__PP___ -1 -17.0000 150.700 -16.7131 150.853 TC -16.7370 150.198 7 13 185
1943027S14154 1943 11 SP EA NOT_NAMED 1943-01-29 03:00:00 TS -17.0398 150.577 main 414 347 ______P__PP___ -1 -17.2819 150.667 -16.8844 150.890 TC -16.9531 150.175 7 14 177
1943027S14154 1943 11 SP EA NOT_NAMED 1943-01-29 06:00:00 TS -17.7247 150.623 main 347 291 ______P__PP___ -1 -18.0588 150.684 -17.4464 151.033 TC -17.6690 150.152 7 14 173
1943027S14154 1943 11 SP EA NOT_NAMED 1943-01-29 09:00:00 TS -18.4067 150.754 main 298 275 ______P__PP___ -1 -18.7393 150.842 -18.0601 151.211 TC -18.4207 150.208 7 14 168
1943027S14154 1943 11 SP EA NOT_NAMED 1943-01-29 11:00:00 TS -18.8429 150.880 main 276 263 ______P__PO___ -1 -19.1437 151.002 -18.4851 151.338 TC -18.9000 150.300 7 13 163
1943027S14154 1943 11 SP EA NOT_NAMED 1943-01-29 12:00:00 TS -19.0481 150.960 main 272 260 ______P__PP___ -1 -19.3321 151.093 -18.6996 151.402 TC -19.1126 150.385 7 13 157
1943027S14154 1943 11 SP EA NOT_NAMED 1943-01-29 15:00:00 TS -19.6377 151.231 main 260 254 ______P__PP___ -1 -19.8461 151.386 -19.3390 151.588 TC -19.7281 150.720 7 13 156
1943027S14154 1943 11 SP EA NOT_NAMED 1943-01-29 18:00:00 TS -20.1800 151.508 main 259 226 ______P__PP___ -1 -20.2902 151.673 -19.9526 151.747 TC -20.2971 151.104 7 11 155
1943027S14154 1943 11 SP EA NOT_NAMED 1943-01-29 21:00:00 TS -20.6641 151.735 main 216 202 ______P__PP___ -1 -20.6736 151.903 -20.5148 151.858 TC -20.8041 151.444 7 10 158
1943027S14154 1943 11 SP EA NOT_NAMED 1943-01-29 23:00:00 TS -20.9495 151.832 998 bom main 202 184 ______O__PO___ -1 -20.9000 152.000 998 -20.8484 151.895 TC -21.1000 151.600 7 9 167
1943027S14154 1943 11 SP EA NOT_NAMED 1943-01-30 00:00:00 TS -21.0852 151.841 main 184 159 ______P__OP___ -1 -21.0162 151.990 -21.0000 151.900 TC 35 998 -21.2394 151.634 7 7 0
1943027S14154 1943 11 SP EA NOT_NAMED 1943-01-30 03:00:00 TS -21.4374 151.804 main 159 128 ______P__PP___ -1 -21.3169 151.908 -21.3900 151.857 TC -21.6054 151.646 7 7 193
1943027S14154 1943 11 SP EA NOT_NAMED 1943-01-30 06:00:00 TS -21.7204 151.680 main 128 98 ______P__PP___ -1 -21.5613 151.759 -21.6947 151.738 TC -21.9053 151.544 7 6 209
1943027S14154 1943 11 SP EA NOT_NAMED 1943-01-30 09:00:00 TS -21.9517 151.491 main 91 76 ______P__PP___ -1 -21.7694 151.559 -21.9311 151.558 TC -22.1544 151.357 7 6 221
1943027S14154 1943 11 SP EA NOT_NAMED 1943-01-30 11:00:00 TS -22.0857 151.339 main 68 68 ______P__PO___ -1 -21.8980 151.405 -22.0592 151.411 TC -22.3000 151.200 7 6 228
1943027S14154 1943 11 SP EA NOT_NAMED 1943-01-30 12:00:00 TS -22.1486 151.257 main 68 30 ______P__PP___ -1 -21.9614 151.324 -22.1162 151.331 TC -22.3683 151.114 7 6 233
1943027S14154 1943 11 SP EA NOT_NAMED 1943-01-30 15:00:00 TS -22.3331 150.987 main 30 0 ______P__PP___ -1 -22.1573 151.071 -22.2669 151.073 TC -22.5587 150.837 7 6 234
1943027S14154 1943 11 SP EA NOT_NAMED 1943-01-30 17:00:00 TS -22.4616 150.793 bom main 0 0 ______O__PP___ -1 -22.3000 150.900 -22.3565 150.892 TC -22.6758 150.637 7 7 234
1943027S14154 1943 11 SP EA NOT_NAMED 1943-01-30 18:00:00 TS -22.5325 150.693 main 0 0 ______P__OP___ -1 -22.3770 150.815 -22.4000 150.800 TC -22.7321 150.534 7 7 231
1943027S14154 1943 11 SP EA NOT_NAMED 1943-01-30 21:00:00 NR -22.7603 150.391 main 0 0 ______P___P___ -1 -22.6260 150.565 TC -22.8947 150.216 7 7 231
1943027S14154 1943 11 SP EA NOT_NAMED 1943-01-30 23:00:00 NR -22.9000 150.200 1008 bom main 0 ______O___O___ -1 -22.8000 150.400 1008 TC -23.0000 150.000 7 7 231

デジタル台風データ・検索

IBTrACS Databaseについて

本データベースは、米国NOAAが公開する1842年以降の世界の熱帯低気圧のベストトラックデータアーカイブInternational Best Track Archive for Climate Stewardship (IBTrACS)を、ウェブで閲覧しやすい形式に変換したものです。

最終更新日:2021-12-06